Tiempo atmosférico en la estación meteorológica de Cabo Busto, Asturias (63 m.)



Fecha
DESCASC
Temp. máxima en grados centígrados (hora)
DESCASC
Temp. mínima en grados centígrados (hora)
DESCASC
Temp. media en grados centígrados
DESCASC
Racha de viento máxima en m/sg (hora)
DESCASC
Velocidad máxima media en intervalos de 10 minutos(hora)
DESCASC
Precipitaciones diarias en mm
DESCASC
Precipitaciones de 00:00 a 06:00 en mm
DESCASC
Precipitaciones de 06:00 a 12:00 en mm
DESCASC
Precipitaciones de 12:00 a 18:00 en mm
DESCASC
Precipitaciones de 18:00 a 24:00 en mm
DESCASC
10-07-2020 -- (--) -- (--) -- 8.89 (23:59) 5.56 (23:00) 0.2 0 0.2 0 0
09-07-2020 -- (--) -- (--) -- 6.94 (00:20) 4.17 (00:30) 0 0 0 0 0
08-07-2020 -- (--) -- (--) -- 12.5 (07:50) 8.33 (11:10) 0 0 0 0 0
07-07-2020 -- (--) -- (--) -- 15.28 (20:00) 10.28 (19:40) 0 0 0 0 0
06-07-2020 -- (--) -- (--) -- 15.28 (22:00) 9.17 (22:10) -- -- -- -- 0
05-07-2020 -- (--) -- (--) -- 4.72 (07:50) 3.89 (06:00) 0 0 0 0 0
04-07-2020 -- (--) -- (--) -- 6.11 (06:30) 5 (07:10) 0 0 0 0 0
03-07-2020 -- (--) -- (--) -- 5.83 (14:10) 3.89 (00:20) 0 0 0 0 0
02-07-2020 -- (--) -- (--) -- 12.5 (15:40) 9.72 (15:40) 0 0 0 0 0
01-07-2020 -- (--) -- (--) -- 13.33 (10:20) 10 (10:20) 0 0 0 0 0
30-06-2020 -- (--) -- (--) -- 5 (03:10) 4.17 (01:40) 0 0 0 0 0
29-06-2020 -- (--) -- (--) -- 5.83 (16:20) 4.17 (00:30) 0.4 0 0.4 0 0
28-06-2020 -- (--) -- (--) -- 8.89 (17:00) 5.83 (17:10) 2.2 0 0 0 2.2
27-06-2020 -- (--) -- (--) -- 14.72 (11:50) 11.67 (11:50) 0 0 0 0 0
26-06-2020 -- (--) -- (--) -- 7.22 (16:40) 4.44 (15:10) 0 0 0 0 0
25-06-2020 -- (--) -- (--) -- 10 (01:00) 7.78 (00:20) 1 0 0 1 0
24-06-2020 -- (--) -- (--) -- 10.83 (04:50) 8.06 (04:50) 0 0 0 0 0
23-06-2020 -- (--) -- (--) -- 9.44 (23:30) 7.78 (22:30) 0 0 0 0 0
22-06-2020 -- (--) -- (--) -- 12.78 (15:20) 8.33 (17:10) 0 0 0 0 0
21-06-2020 -- (--) -- (--) -- 7.5 (16:50) 5.28 (16:50) 0 0 0 0 0
20-06-2020 -- (--) -- (--) -- 7.22 (15:30) 4.72 (05:40) 0 0 0 0 0
19-06-2020 -- (--) -- (--) -- 5.56 (12:10) 4.17 (12:10) 0 0 0 0 0
18-06-2020 -- (--) -- (--) -- 6.67 (03:40) 4.72 (02:30) 0 0 0 0 0
17-06-2020 -- (--) -- (--) -- 10.28 (08:50) 7.78 (01:50) 0.2 0 0 0.2 0
16-06-2020 -- (--) -- (--) -- 14.17 (13:00) 10 (19:30) -- 2.4 -- 0 0.2
15-06-2020 -- (--) -- (--) -- -- (--) -- (--) -- -- -- -- --
14-06-2020 -- (--) -- (--) -- -- (--) -- (--) -- -- -- -- --
13-06-2020 -- (--) -- (--) -- -- (--) -- (--) -- -- -- -- --
12-06-2020 -- (--) -- (--) -- -- (--) -- (--) -- -- -- -- --

Gráficas

Temp. máximas Temp. mínimas Temp. medias Precipitaciones Rachas de viento máximas Velocidades máximas media en intervalos de 10 minutos

Datos horarios

Fecha y hora oficial Temperatura (ºC) Velocidad del viento (km/h) Dirección del viento Racha (km/h) Dirección de racha Precipitación (mm) Presión (hPa) Tendencia (hPa) Humedad (%)
2020-07-11 23:00:00 17.4 23 Nordeste 45 Nordeste 0 1012.1 0.6 83
2020-07-11 22:00:00 17.5 24 Nordeste 49 Nordeste 0 1011.9 0.3 84
2020-07-11 21:00:00 17.7 26 Nordeste 48 Nordeste 0 1011.6 -0.1 83
2020-07-11 20:00:00 17.9 27 Nordeste 48 Nordeste 0 1011.5 -0.1 84
2020-07-11 19:00:00 18.3 26 Nordeste 51 Nordeste 0 1011.6 -0.4 83
2020-07-11 18:00:00 18.7 37 Nordeste 56 Nordeste 0 1011.7 -1 80
2020-07-11 17:00:00 19.1 33 Nordeste 53 Nordeste 0 1011.6 -1.6 77
2020-07-11 16:00:00 18.8 34 Nordeste 53 Nordeste 0 1012 -1.4 77
2020-07-11 15:00:00 19.1 28 Nordeste 47 Nordeste 0 1012.7 -0.8 76
2020-07-11 14:00:00 18.5 24 Nordeste 48 Nordeste 0 1013.2 -0.5 78
2020-07-11 13:00:00 18.4 28 Nordeste 45 Nordeste 0 1013.4 -0.3 78
2020-07-11 12:00:00 18.2 27 Nordeste 42 Nordeste 0 1013.5 -0.4 78
2020-07-11 11:00:00 17.5 23 Nordeste 41 Nordeste 0 1013.7 -0.2 81
2020-07-11 10:00:00 17.3 22 Nordeste 38 Este 0 1013.7 0.2 81
2020-07-11 09:00:00 17.2 20 Nordeste 40 Nordeste 0 1013.9 0.5 83
2020-07-11 08:00:00 17.1 22 Nordeste 42 Nordeste 0 1013.9 0.4 84
2020-07-11 07:00:00 17.1 23 Nordeste 41 Nordeste 0 1013.5 -0.3 84
2020-07-11 06:00:00 17.2 25 Nordeste 43 Nordeste 0 1013.4 -0.8 84
2020-07-11 05:00:00 17.2 18 Nordeste 35 Nordeste 0 1013.5 -- 84
2020-07-11 04:00:00 17.1 21 Nordeste 38 Nordeste 0 1013.8 -- 85
2020-07-11 03:00:00 17.2 19 Nordeste 36 Nordeste 0 1014.2 -- 83
2020-07-11 02:00:00 17.3 19 Nordeste 32 Nordeste 0 1014.5 -0.2 84
2020-07-11 01:00:00 17.4 19 Nordeste 34 Nordeste 0 1014.8 -- 84
2020-07-11 00:00:00 17.5 20 Nordeste 32 Nordeste 0 1014.8 -- 83
2020-07-10 23:00:00 17.6 20 Este 30 Este 0 1014.7 -- 83
2020-07-10 22:00:00 17.7 12 Nordeste 22 Nordeste 0 1014.4 -- 81
2020-07-10 21:00:00 18 12 Nordeste 22 Este 0 1014.4 -- 79
2020-07-10 20:00:00 18.2 13 Nordeste 22 Nordeste 0 1014.4 -- 78
2020-07-10 19:00:00 18.5 12 Nordeste 22 Nordeste 0 1014.2 -- 77
2020-07-10 18:00:00 18.3 13 Nordeste 21 Nordeste 0 1014.2 -- 79
2020-07-10 17:00:00 18.7 9 Este 19 Este 0 1014.2 -- 77
2020-07-10 16:00:00 18.7 9 Este 18 Este 0 1014.5 -- 78
2020-07-10 15:00:00 18.1 10 Este 17 Este 0 1014.7 -- 83
2020-07-10 14:00:00 17.5 11 Nordeste 25 Nordeste 0 1014.6 0.5 84
2020-07-10 13:00:00 18.1 3 Nordeste 9 Este 0 1014.4 -- 83
2020-07-10 12:00:00 17.5 5 Este 9 Este 0 1014.2 -- 86
2020-07-10 11:00:00 17.5 3 Noroeste 9 Sudeste 0.2 1014.1 0.7 87
2020-07-10 10:00:00 16.7 5 Este 10 Nordeste 0 1014 -- 88
2020-07-10 09:00:00 16.7 6 Oeste 16 Oeste 0 1013.7 -- 87
2020-07-10 08:00:00 16.6 14 Oeste 21 Oeste 0 1013.4 -- 87
2020-07-10 07:00:00 16.7 12 Oeste 17 Oeste 0 1013.1 -- 85
2020-07-10 06:00:00 16.2 8 Oeste 18 Sur 0 1012.8 -- 84
2020-07-10 05:00:00 15.2 17 Sur 20 Sur 0 1012.6 -- 85
2020-07-10 04:00:00 15.7 13 Sur 16 Sur 0 1013 -- 84
2020-07-10 03:00:00 16.5 11 Sur 13 Sur 0 1013.4 -- 83
2020-07-10 02:00:00 17.5 5 Sudoeste 16 Oeste 0 1013.7 -- 84
2020-07-10 01:00:00 17.4 12 Oeste 14 Oeste 0 1013.4 -- 83
2020-07-10 00:00:00 18 10 Oeste 12 Oeste 0 1013.9 -- 82
2020-07-09 23:00:00 18.3 8 Oeste 12 Oeste 0 1013.5 -- 81
2020-07-09 22:00:00 19.8 6 Oeste 10 Oeste 0 1012.9 -- 74
2020-07-09 21:00:00 21.4 6 Oeste 12 Oeste 0 1012.8 -- 72
2020-07-09 20:00:00 21.7 9 Oeste 13 Oeste 0 1012.3 -- 71
2020-07-09 19:00:00 22.7 9 Oeste 14 Oeste 0 1012.3 -- 70
2020-07-09 18:00:00 22.5 8 Oeste 14 Oeste 0 1012.8 -- 71
2020-07-09 17:00:00 22.1 10 Noroeste 13 Noroeste 0 1013 -- 73
2020-07-09 16:00:00 21.1 6 Noroeste 11 Noroeste 0 1013.1 -- 76
2020-07-09 15:00:00 21 5 Norte 10 Norte 0 1013.2 -- 78
2020-07-09 14:00:00 20.9 6 Norte 12 Noroeste 0 1013.1 -- 78
2020-07-09 13:00:00 20.5 7 Noroeste 12 Noroeste 0 1012.9 -- 80
2020-07-09 12:00:00 21 4 Norte 9 Oeste -- 1012.8 -- 80
2020-07-09 11:00:00 19.8 6 Oeste 13 Oeste 0 1012.9 -- 86
2020-07-09 10:00:00 18.5 8 Oeste 10 Oeste 0 1012.7 -- 87
2020-07-09 09:00:00 17.8 3 Sudoeste 17 Sudeste 0 1012.4 -- 89
2020-07-09 08:00:00 16.6 13 Sudeste 16 Sudeste 0 1012 -- 90
2020-07-09 07:00:00 16.1 10 Sudeste 12 Sudeste 0 1011.6 -- 90
2020-07-09 06:00:00 16.7 4 Sudeste 13 Este 0 1011.3 -- 89
2020-07-09 05:00:00 17.5 6 Este 14 Este 0 1011.2 -- 90
2020-07-09 04:00:00 17.6 8 Este 16 Este 0 1011.3 -- 90
2020-07-09 03:00:00 17.2 6 Este 18 Este 0 1010.7 -- 90
2020-07-09 02:00:00 17.6 9 Este 23 Este 0 1011.1 -- 90
2020-07-09 01:00:00 17.6 14 Este 25 Nordeste 0 1011.8 -- 91
2020-07-09 00:00:00 17.5 13 Nordeste 30 Este 0 1012 -- 89
2020-07-08 23:00:00 17.9 21 Este 29 Este 0 1011.3 -- 89
2020-07-08 22:00:00 17.9 11 Este 33 Nordeste 0 1011.1 -- 88
2020-07-08 21:00:00 18.5 19 Nordeste 33 Nordeste 0 1010 -- 87
2020-07-08 20:00:00 18.6 18 Este 32 Nordeste 0 1009.8 -- 86
2020-07-08 19:00:00 18.8 17 Nordeste 30 Nordeste 0 1009.7 -- 84
2020-07-08 18:00:00 19.1 14 Nordeste 32 Este 0 1009.9 -- 82
2020-07-08 17:00:00 18.7 22 Nordeste 37 Nordeste 0 1010 -- 84
2020-07-08 16:00:00 19 20 Nordeste 37 Nordeste 0 1010 -- 84
2020-07-08 15:00:00 19.3 23 Este 34 Este 0 1010.2 -- 81
2020-07-08 14:00:00 18.6 22 Nordeste 40 Nordeste 0 1010 -- 82
2020-07-08 13:00:00 18.8 18 Nordeste 39 Este 0 1009.9 -- 83
2020-07-08 12:00:00 17.6 22 Este 39 Este 0 1010 -- 85
2020-07-08 11:00:00 17.3 28 Este 40 Este 0 1009.8 -- 86
2020-07-08 10:00:00 17 22 Este 41 Este 0 1009.8 -- 87
2020-07-08 09:00:00 17 23 Nordeste 44 Nordeste 0 1009.5 -- 87
2020-07-08 08:00:00 17.1 27 Nordeste 45 Nordeste 0 1009.2 -- 86
2020-07-08 07:00:00 17.2 24 Nordeste 45 Nordeste 0 1009 -- 85
2020-07-08 06:00:00 17.1 24 Nordeste 44 Nordeste 0 1008.9 -- 84
2020-07-08 05:00:00 17.2 24 Nordeste 43 Nordeste 0 1008.9 -- 82
2020-07-08 04:00:00 17.3 26 Nordeste 42 Nordeste 0 1009.3 -- 81
2020-07-08 03:00:00 17.4 24 Nordeste 42 Nordeste 0 1009.7 -- 80
2020-07-08 02:00:00 17.4 25 Nordeste 42 Nordeste 0 1009.9 -- 82
2020-07-08 01:00:00 17.6 24 Nordeste 39 Nordeste 0 1010.1 -- 82
2020-07-08 00:00:00 17.6 22 Nordeste 41 Nordeste 0 1010.3 -- 84
2020-07-07 23:00:00 17.6 22 Nordeste 46 Nordeste 0 1010.2 -- 84
2020-07-07 22:00:00 17.7 28 Nordeste 50 Nordeste 0 1009.7 -- 82
2020-07-07 21:00:00 18.2 33 Nordeste 52 Nordeste 0 1009.6 -- 80
2020-07-07 20:00:00 18.5 36 Nordeste 55 Nordeste 0 1009.5 -1.4 77
2020-07-07 19:00:00 18.8 34 Nordeste 55 Nordeste 0 1009.7 -1.4 74
2020-07-07 18:00:00 19 34 Nordeste 54 Nordeste 0 1010.2 -1.2 71
2020-07-07 17:00:00 19.1 34 Nordeste 54 Nordeste 0 1010.9 -0.6 70
2020-07-07 16:00:00 19 33 Nordeste 54 Nordeste 0 1011.1 -0.5 69
2020-07-07 15:00:00 18.9 35 Nordeste 54 Nordeste 0 1011.4 -0.3 68
2020-07-07 14:00:00 19 32 Nordeste 53 Nordeste 0 1011.5 -0.7 68
2020-07-07 13:00:00 18.8 32 Nordeste 52 Nordeste 0 1011.6 -0.8 67
2020-07-07 12:00:00 18.7 31 Nordeste 48 Nordeste 0 1011.7 -0.9 67
2020-07-07 11:00:00 18.5 28 Nordeste 44 Nordeste 0 1012.2 -0.2 68
2020-07-07 10:00:00 17.6 23 Nordeste 38 Nordeste 0 1012.4 -0.2 72
2020-07-07 09:00:00 17.3 23 Este 42 Este 0 1012.6 -0.3 72
2020-07-07 08:00:00 17 27 Este 43 Este 0 1012.4 -0.7 71
2020-07-07 07:00:00 17 25 Este 46 Este 0 1012.6 -- 73
2020-07-07 06:00:00 17.2 28 Este 48 Este 0 1012.9 -- 75
2020-07-07 05:00:00 17.3 31 Este 50 Este 0 1013.1 -- 76
2020-07-07 04:00:00 17.3 28 Este 48 Este 0 1013.7 -- 77
2020-07-07 03:00:00 17.3 24 Nordeste 49 Este 0 1014.4 -- 77
2020-07-07 02:00:00 17.2 27 Nordeste 47 Nordeste 0 1014.8 -- 78
2020-07-07 01:00:00 17.5 24 Nordeste 45 Este 0 1015.2 -- 79
2020-07-07 00:00:00 17.5 24 Nordeste 49 Este 0 1015.5 -- 78
2020-07-06 23:00:00 17.6 26 Nordeste 54 Este 0 1015.7 -- 77
2020-07-06 22:00:00 17.6 30 Este 55 Este 0 1015.6 -- 76
2020-07-06 21:00:00 17.8 27 Nordeste 51 Nordeste 0 1015.6 -- 77
2020-07-06 20:00:00 17.9 30 Nordeste 50 Nordeste 0 1015.9 -- 76
2020-07-06 19:00:00 18.2 24 Nordeste 47 Nordeste 0 1016.2 -- 76
2020-07-06 18:00:00 18.1 26 Nordeste 46 Nordeste 0 1016.5 -- 75
2020-07-06 17:00:00 17.9 27 Nordeste 53 Nordeste 0 1016.8 -- 76
2020-07-06 16:00:00 17.7 27 Nordeste 51 Nordeste 0 1017.1 -- 78
2020-07-06 15:00:00 17.4 24 Nordeste 46 Nordeste 0 1017.7 -- 78
2020-07-06 14:00:00 17.2 25 Nordeste 49 Nordeste 0 1017.8 -- 80
2020-07-06 13:00:00 17.1 18 Nordeste 50 Nordeste 0 1017.7 -- 84
2020-07-06 12:00:00 16.8 26 Nordeste 49 Nordeste 0 1017.6 -- 86
2020-07-06 11:00:00 16.6 28 Nordeste 49 Nordeste 0 1017.3 -- 89
2020-07-06 10:00:00 16.5 23 Nordeste 47 Nordeste 0 1017.1 -- 91
2020-07-06 09:00:00 17 14 Norte 41 Nordeste 0 1016.6 -- 91
2020-07-06 08:00:00 17.2 14 Noroeste 35 Oeste 0 1016.1 -- 91
2020-07-06 07:00:00 17.7 15 Este 28 Este 0 1016.2 -- 90
2020-07-06 06:00:00 17.7 14 Este 27 Nordeste 0 1016 -- 90
2020-07-06 05:00:00 17.8 15 Nordeste 28 Nordeste 0 1016.1 -- 90
2020-07-06 04:00:00 17.8 8 Oeste 23 Oeste 0 1016.4 -- 91
2020-07-06 03:00:00 17.9 6 Oeste 22 Nordeste 0 1016.5 -- 91
2020-07-06 02:00:00 18 5 Oeste 17 Nordeste 0 1016.8 -- 90
2020-07-06 01:00:00 18 5 Oeste 12 Este 0 1017 -- 89
2020-07-06 00:00:00 18 5 Oeste 17 Este 0 1017.2 -- 88
2020-07-05 23:00:00 18.4 2 Norte 14 Noroeste 0 1017.3 -- 87
2020-07-05 22:00:00 18.7 4 Noroeste 13 Norte 0 1016.9 -- 83
2020-07-05 21:00:00 18.9 6 Norte 13 Noroeste 0 1016.4 -- 82
2020-07-05 20:00:00 19.5 3 Norte 9 Nordeste 0 1016 -- 81
2020-07-05 19:00:00 20.1 3 Noroeste 10 Oeste 0 1016 -- 81
2020-07-05 18:00:00 20.3 5 Norte 13 Noroeste 0 1016.2 -- 85
2020-07-05 17:00:00 20.2 4 Noroeste 14 Noroeste 0 1016.5 -- 83
2020-07-05 16:00:00 21.1 11 Noroeste 16 Noroeste 0 1016.6 -- 75
2020-07-05 15:00:00 22.3 11 Noroeste 17 Noroeste 0 1016.5 -- 68
2020-07-05 14:00:00 22.3 8 Noroeste 14 Oeste 0 1016.5 -- 68
2020-07-05 13:00:00 21.7 9 Noroeste 13 Oeste 0 1016.3 -- 71
2020-07-05 12:00:00 21.3 8 Noroeste 11 Oeste 0 1016.1 -- 72
2020-07-05 11:00:00 21.1 6 Oeste 9 Oeste 0 1016.4 -- 71
2020-07-05 10:00:00 20.3 4 Noroeste 9 Oeste 0 1016.2 -- 72
2020-07-05 09:00:00 18.7 6 Sudeste 15 Sudeste 0 1015.7 -- 77
2020-07-05 08:00:00 15.7 13 Sudeste 17 Sudeste 0 1015.7 -- 84
2020-07-05 07:00:00 14.8 12 Sudeste 16 Sur 0 1015.9 -- 86
2020-07-05 06:00:00 14.9 14 Sur 16 Sur 0 1016 -- 85
2020-07-05 05:00:00 15.2 7 Sur 14 Sur 0 1016 -- 84
2020-07-05 04:00:00 15.8 5 Sur 12 Sur 0 1016.1 -- 83
2020-07-05 03:00:00 16.1 7 Sur 11 Sur 0 1016.4 -- 82
2020-07-05 02:00:00 16.4 7 Sur 15 Sudeste 0 1016.9 -- 80
2020-07-05 01:00:00 17.1 11 Sudeste 16 Sudeste 0 1017.1 -- 78
2020-07-05 00:00:00 17.7 9 Sudeste 13 Sudeste 0 1017.5 -- 76
2020-07-04 23:00:00 18.3 5 Sudeste 6 Sur 0 1017.5 -- 73
2020-07-04 22:00:00 19.8 3 Oeste 8 Oeste 0 1017.4 -- 68
2020-07-04 21:00:00 20 5 Oeste 8 Oeste 0 1017.3 -- 69
2020-07-04 20:00:00 20.2 5 Noroeste 12 Noroeste 0 1017.1 -- 68
2020-07-04 19:00:00 21.6 6 Noroeste 13 Noroeste 0 1016.9 -- 63
2020-07-04 18:00:00 21.5 5 Norte 11 Noroeste 0 1017.2 -- 63
2020-07-04 17:00:00 21.4 6 Norte 11 Norte 0 1017.2 -- 63
2020-07-04 16:00:00 21.5 5 Este 12 Nordeste 0 1017.1 -- 62
2020-07-04 15:00:00 20.8 6 Este 11 Este 0 1017.3 -- 63
2020-07-04 14:00:00 20.6 6 Noroeste 14 Oeste 0 1017.8 -- 63
2020-07-04 13:00:00 20.4 4 Norte 12 Norte 0 1017.5 -- 65
2020-07-04 12:00:00 19.6 6 Noroeste 13 Noroeste 0 1017.6 -- 69
2020-07-04 11:00:00 19 7 Noroeste 12 Noroeste 0 1017.5 -- 68
2020-07-04 10:00:00 18.8 3 Noroeste 15 Sudeste 0 1017.4 -- 69
2020-07-04 09:00:00 15.9 12 Sudeste 18 Sur 0 1017.1 -- 78
2020-07-04 08:00:00 13.4 13 Sudeste 22 Sur 0 1017.1 -- 84
2020-07-04 07:00:00 12.4 17 Sur 22 Sudeste 0 1016.8 -- 86
2020-07-04 06:00:00 12.6 15 Sur 20 Sur 0 1016.6 -- 85
2020-07-04 05:00:00 13 17 Sur 19 Sur 0 1016.7 -- 84
2020-07-04 04:00:00 13.6 13 Sur 16 Sur 0 1017 -- 82
2020-07-04 03:00:00 14 10 Sur 15 Sur 0 1017.2 -- 82
2020-07-04 02:00:00 14.5 12 Sur 15 Sur 0 1017.4 -- 80
2020-07-04 01:00:00 15.5 7 Sudeste 12 Sur 0 1017.7 -- 74
2020-07-04 00:00:00 16.7 5 Sudeste 10 Este 0 1018 -- 70
2020-07-03 23:00:00 17.5 5 Este 12 Este 0 1017.7 -- 67
2020-07-03 22:00:00 18.1 6 Nordeste 12 Nordeste 0 1017.4 -- 64
2020-07-03 21:00:00 18.1 7 Nordeste 14 Nordeste 0 1017.3 -- 63
2020-07-03 20:00:00 18.7 5 Nordeste 13 Nordeste 0 1017.3 -- 62
2020-07-03 19:00:00 19.4 4 Norte 16 Este 0 1017.5 -- 61
2020-07-03 18:00:00 20 5 Sudeste 21 Nordeste 0 1017.5 -- 56
2020-07-03 17:00:00 20.3 6 Noroeste 14 Nordeste 0 1017.5 -- 54
2020-07-03 16:00:00 20.7 4 Norte 15 Nordeste 0 1017.5 -- 54
2020-07-03 15:00:00 20.7 6 Noroeste 21 Nordeste 0 1017.3 -- 58
2020-07-03 14:00:00 20.4 6 Noroeste 17 Nordeste 0 1017.6 -- 60
2020-07-03 13:00:00 19.6 5 Noroeste 13 Este 0 1017.7 -- 62
2020-07-03 12:00:00 19.2 7 Noroeste 12 Noroeste 0 1017.9 -- 65
2020-07-03 11:00:00 18.7 6 Oeste 11 Oeste 0 1017.8 -- 66
2020-07-03 10:00:00 17.6 3 Oeste 10 Oeste 0 1017.4 -- 71
2020-07-03 09:00:00 15.4 8 Oeste 12 Sur 0 1017.2 -- 79
2020-07-03 08:00:00 13.9 10 Sur 13 Sur 0 1017.1 -- 83
2020-07-03 07:00:00 13.7 9 Sur 13 Sur 0 1016.7 -- 83
2020-07-03 06:00:00 14.2 10 Sur 13 Sur 0 1016.7 -- 82
2020-07-03 05:00:00 14.4 9 Sur 12 Sur 0 1016.7 -- 81
2020-07-03 04:00:00 14.7 8 Sur 12 Sudoeste 0 1016.7 -- 79
2020-07-03 03:00:00 15.2 9 Sur 11 Sur 0 1017 -- 77
2020-07-03 02:00:00 16 6 Sudoeste 12 Oeste 0 1017.2 -- 73
2020-07-03 01:00:00 16.7 8 Noroeste 18 Noroeste 0 1017.4 -- 69
2020-07-03 00:00:00 16.8 10 Noroeste 18 Noroeste 0 1017.2 -- 67
2020-07-02 23:00:00 16.8 11 Noroeste 21 Noroeste 0 1016.8 -- 66
2020-07-02 22:00:00 17 15 Oeste 22 Oeste 0 1016.4 -- 65
2020-07-02 21:00:00 17.3 16 Oeste 23 Noroeste 0 1016 -- 63
2020-07-02 20:00:00 18.6 12 Oeste 19 Oeste 0 1015.7 -- 65
2020-07-02 19:00:00 19.4 10 Oeste 20 Oeste 0 1015.5 -- 63
2020-07-02 18:00:00 19.2 9 Oeste 14 Oeste 0 1015.6 -- 65
2020-07-02 17:00:00 18.1 5 Noroeste 32 Noroeste 0 1015.4 -- 69
2020-07-02 16:00:00 16.9 29 Noroeste 45 Noroeste 0 1014.9 -- 74
2020-07-02 15:00:00 20.4 16 Oeste 25 Oeste 0 1014.6 -- 61
2020-07-02 14:00:00 18.5 17 Oeste 31 Oeste 0 1014.4 -- 67
2020-07-02 13:00:00 18.7 15 Oeste 31 Oeste 0 1014.1 -- 69
2020-07-02 12:00:00 18 17 Oeste 29 Oeste 0 1013.6 -- 71
2020-07-02 11:00:00 17 17 Oeste 33 Oeste 0 1013.1 -- 75
2020-07-02 10:00:00 16.8 21 Noroeste 25 Noroeste 0 1012.2 -- 75
2020-07-02 09:00:00 17 4 Sudoeste 15 Sur 0 1011.9 -- 76
2020-07-02 08:00:00 15.9 9 Sur 19 Oeste 0 1011.4 -- 78
2020-07-02 07:00:00 16.1 10 Sudoeste 19 Oeste 0 1011.1 -- 76
2020-07-02 06:00:00 16.3 17 Oeste 23 Oeste 0 1010.8 -- 77
2020-07-02 05:00:00 16.3 19 Oeste 26 Oeste 0 1010.6 -- 79
2020-07-02 04:00:00 16.5 16 Oeste 22 Oeste 0 1010.8 -- 79
2020-07-02 03:00:00 16.4 12 Oeste 20 Sudoeste 0 1010.9 -- 79
2020-07-02 02:00:00 16.3 9 Sudoeste 17 Sudoeste 0 1011.2 -- 80
2020-07-02 01:00:00 16.2 10 Sudoeste 15 Sudoeste 0 1011.3 -- 81
2020-07-02 00:00:00 16.2 12 Oeste 18 Oeste 0 1011.4 -- 83
2020-07-01 23:00:00 16.2 13 Oeste 30 Oeste 0 1011.1 -- 83
2020-07-01 22:00:00 16.5 10 Sudoeste 26 Oeste 0 1010.7 -- 82
2020-07-01 21:00:00 17.1 11 Oeste 26 Oeste 0 1010.3 -- 77
2020-07-01 20:00:00 17.5 17 Oeste 24 Noroeste 0 1010 -- 75
2020-07-01 19:00:00 18.3 16 Oeste 28 Oeste 0 1009.8 -- 75
2020-07-01 18:00:00 18.5 18 Oeste 30 Noroeste 0 1009.8 -- 75
2020-07-01 17:00:00 18.6 18 Oeste 32 Oeste 0 1009.6 -- 74
2020-07-01 16:00:00 18.1 18 Oeste 33 Noroeste 0 1009.6 -- 78
2020-07-01 15:00:00 18.2 22 Oeste 36 Oeste 0 1009.3 -- 77
2020-07-01 14:00:00 18.3 18 Oeste 36 Noroeste 0 1009 -- 78
2020-07-01 13:00:00 17.9 26 Oeste 40 Oeste 0 1008.5 -- 83
2020-07-01 12:00:00 18.2 29 Oeste 43 Oeste 0 1007.7 -- 83
2020-07-01 11:00:00 18.4 27 Oeste 48 Noroeste 0 1007.3 -- 84
2020-07-01 10:00:00 19.9 12 Oeste 27 Oeste 0 1006.8 -- 78
2020-07-01 09:00:00 19.7 6 Sudoeste 12 Sudoeste 0 1006.4 -- 80
2020-07-01 08:00:00 18.9 6 Oeste 9 Oeste 0 1006.3 -- 83
2020-07-01 07:00:00 18.6 6 Sudoeste 15 Oeste 0 1006.1 -- 83
2020-07-01 06:00:00 18.5 14 Oeste 21 Oeste 0 1005.9 -- 83
2020-07-01 05:00:00 18.7 15 Oeste 20 Oeste 0 1005.9 -- 82
2020-07-01 04:00:00 19.3 13 Oeste 15 Sudoeste 0 1005.7 -- 77
2020-07-01 03:00:00 18 8 Sudoeste 9 Oeste 0 1005.8 -- 79
2020-07-01 02:00:00 18.4 6 Oeste 11 Oeste 0 1006.2 -- 78
2020-07-01 01:00:00 18.9 7 Oeste 11 Oeste 0 1006.7 -- 80
2020-07-01 00:00:00 18.9 4 Oeste 7 Oeste 0 1006.9 -- 79
2020-06-30 23:00:00 19.2 0 Calma 5 Oeste 0 1006.8 -- 78
2020-06-30 22:00:00 19.4 3 Este 8 Nordeste 0 1006.4 -- 76
2020-06-30 21:00:00 19.8 4 Este 8 Este 0 1006.4 -- 73
2020-06-30 20:00:00 20 4 Este 11 Nordeste 0 1006.4 -- 72
2020-06-30 19:00:00 20.6 7 Este 12 Este 0 1006.1 -- 71
2020-06-30 18:00:00 21.1 6 Este 15 Nordeste 0 1006.4 -- 68
2020-06-30 17:00:00 21.4 8 Nordeste 15 Nordeste 0 1006.8 -- 66
2020-06-30 16:00:00 21.5 8 Nordeste -- -- -- 1007 -- 67
2020-06-30 15:00:00 21.1 7 Nordeste 13 Nordeste 0 1007.4 -- 66
2020-06-30 14:00:00 21.4 5 Nordeste 12 Noroeste 0 1007.7 -- 67
2020-06-30 13:00:00 20.2 9 Noroeste 13 Noroeste 0 1008.2 -- 67
2020-06-30 12:00:00 20.3 3 Noroeste 9 Oeste 0 1008.3 -- 68
2020-06-30 11:00:00 18.9 7 Noroeste 11 Oeste 0 1008.4 -- 74
2020-06-30 10:00:00 18.8 5 Oeste 10 Sur 0 1008.6 -- 75
2020-06-30 09:00:00 15.4 7 Sur 16 Sudeste 0 1008.6 -- 79
2020-06-30 08:00:00 14 13 Sudeste 17 Sur 0 1008.6 -- 81
2020-06-30 07:00:00 13.3 15 Sur 17 Sur 0 1008.7 -- 82
2020-06-30 06:00:00 13.8 13 Sur 18 Sur 0 1008.5 -- 82
2020-06-30 05:00:00 13.7 14 Sur 16 Sur 0 1009.1 -- 83
2020-06-30 04:00:00 14 13 Sudeste 18 Sur 0 1009.6 -- 84
2020-06-30 03:00:00 14.4 14 Sur 18 Sur 0 1010.4 -- 86
2020-06-30 02:00:00 14.7 13 Sur 17 Sur 0 1011.2 -- 86
2020-06-30 01:00:00 15.1 13 Sur 15 Sur 0 1011.7 -- 86
2020-06-30 00:00:00 15.6 10 Sur 12 Sur 0 1012 -- 84
2020-06-29 23:00:00 16.9 6 Este 9 Este 0 1012 -- 81
2020-06-29 22:00:00 17.5 6 Este 15 Este 0 1011.7 -- 77
2020-06-29 21:00:00 18.3 9 Este 16 Nordeste 0 1012 -- 74
2020-06-29 20:00:00 18.5 10 Este 15 Este 0 1012.2 -- 73
2020-06-29 19:00:00 19.3 6 Este 17 Nordeste 0 1012.7 -- 73
2020-06-29 18:00:00 19 9 Nordeste 19 Nordeste 0 1012.9 -- 73
2020-06-29 17:00:00 19 12 Nordeste 21 Nordeste 0 1013.2 -- 73
2020-06-29 16:00:00 18.8 11 Nordeste 19 Nordeste 0 1013.7 -- 75
2020-06-29 15:00:00 18.6 9 Este 14 Este 0 1014.1 -- 76
2020-06-29 14:00:00 17.7 9 Este 13 Este 0 1014.7 -- 83
2020-06-29 13:00:00 16.3 8 Este 17 Este 0 1015 -- 89
2020-06-29 12:00:00 16.9 9 Este 13 Este 0.2 1014.8 -- 89
2020-06-29 11:00:00 15.9 4 Nordeste 12 Sudoeste 0.2 1014.6 -- 90
2020-06-29 10:00:00 16 4 Norte 13 Nordeste 0 1014.4 -- 90
2020-06-29 09:00:00 15.6 4 Oeste 17 Nordeste 0 1014.3 -- 91
2020-06-29 08:00:00 15.7 6 Oeste 17 Este 0 1014 -- 90
2020-06-29 07:00:00 15.8 3 Sur 16 Norte 0 1013.8 -- 90
2020-06-29 06:00:00 16 4 Sudeste 11 Sur 0 1013.7 -- 90
2020-06-29 05:00:00 16 8 Sur 11 Sur 0 1013.7 -- 89
2020-06-29 04:00:00 15.9 8 Sur 10 Sur 0 1013.8 -- 89
2020-06-29 03:00:00 16 6 Sur 12 Sur 0 1014.1 -- 89
2020-06-29 02:00:00 16 8 Sur 13 Sur 0 1014.3 -- 89
2020-06-29 01:00:00 16.2 8 Sudoeste 18 Oeste 0 1014.5 -- 90
2020-06-29 00:00:00 16.4 12 Oeste 20 Oeste 0.2 1014.7 -- 89
2020-06-28 23:00:00 16.6 12 Oeste 18 Oeste 0 1014.4 -- 89
2020-06-28 22:00:00 16.7 7 Oeste 23 Noroeste 0.4 1014 -- 90
2020-06-28 21:00:00 17.6 8 Oeste 21 Noroeste 0.4 1013.8 -- 89
2020-06-28 20:00:00 17.9 12 Noroeste 23 Oeste 0.8 1013.6 -- 88
2020-06-28 19:00:00 18.4 13 Oeste 29 Oeste 0.4 1013.4 -- 87
2020-06-28 18:00:00 18.9 15 Oeste 30 Oeste 0 1013.1 -- 85
2020-06-28 17:00:00 19.6 19 Oeste 32 Oeste 0 1012.6 -- 81
2020-06-28 16:00:00 20.9 13 Oeste 23 Oeste 0 1012.7 0.7 74
2020-06-28 15:00:00 21.8 5 Nordeste 12 Norte 0 1012.4 -- 69
2020-06-28 14:00:00 22.4 6 Norte 12 Noroeste 0 1012 -- 68
2020-06-28 13:00:00 21.1 5 Noroeste 7 Noroeste 0 1012 -- 67
2020-06-28 12:00:00 20.3 3 Noroeste 10 Norte 0 1012 -- 70
2020-06-28 11:00:00 20.2 3 Norte 10 Noroeste 0 1011.7 -- 72
2020-06-28 10:00:00 19.6 3 Este 13 Oeste 0 1011.6 -- 74
2020-06-28 09:00:00 17.8 5 Sur 6 Sur 0 1011.7 -- 83
2020-06-28 08:00:00 16.3 5 Sur 13 Sur 0 1011.2 -- 85
2020-06-28 07:00:00 15.5 11 Sur 14 Sudeste 0 1011 -- 87
2020-06-28 06:00:00 15.7 8 Sudeste 13 Sur 0 1011 -- 86
2020-06-28 05:00:00 16.1 10 Sudeste 19 Sur 0 1011 -- 86
2020-06-28 04:00:00 16.4 13 Sudeste 19 Sur 0 1011.1 -- 85
2020-06-28 03:00:00 16.7 9 Sudeste 13 Sudeste 0 1011.6 -- 83
2020-06-28 02:00:00 17.5 5 Sudeste 10 Sudeste 0 1012 -- 82
2020-06-28 01:00:00 17.7 6 Sudeste 11 Sudeste 0 1012 -- 82
2020-06-28 00:00:00 17.9 2 Este 7 Sur 0 1012.1 -- 80
2020-06-27 23:00:00 18 5 Sur 6 Sur 0 1011.9 -- 80
2020-06-27 22:00:00 18.2 4 Sur 7 Oeste 0 1011.2 -- 79
2020-06-27 21:00:00 18.4 2 Sudoeste 5 Noroeste 0 1010.8 -- 79
2020-06-27 20:00:00 18.6 4 Oeste 12 Noroeste 0 1010.8 -- 79
2020-06-27 19:00:00 18.6 12 Oeste 17 Oeste 0 1010.4 -- 77
2020-06-27 18:00:00 19.6 9 Oeste 13 Oeste 0 1010.2 -- 77
2020-06-27 17:00:00 19.2 9 Oeste 15 Oeste 0 1010.2 -- 79
2020-06-27 16:00:00 19.7 12 Oeste 24 Oeste 0 1010.2 -- 79
2020-06-27 15:00:00 19.2 14 Oeste 24 Oeste 0 1009.8 -- 80
2020-06-27 14:00:00 20.1 12 Oeste 26 Oeste 0 1009.3 -- 77
2020-06-27 13:00:00 19.3 14 Oeste 48 Noroeste 0 1009.1 -- 81
2020-06-27 12:00:00 22.2 39 Oeste 53 Oeste 0 1007.6 -- 61
2020-06-27 11:00:00 21.7 20 Oeste 30 Oeste 0 1007.5 -- 64
2020-06-27 10:00:00 21.8 32 Oeste 39 Oeste 0 1007.2 -- 61
2020-06-27 09:00:00 21.1 18 Oeste 44 Oeste 0 1006.9 -- 63
2020-06-27 08:00:00 20.7 24 Oeste 34 Oeste 0 1006.8 -- 65
2020-06-27 07:00:00 20.5 14 Oeste 24 Oeste 0 1006.2 -- 65
2020-06-27 06:00:00 20.6 9 Oeste 34 Oeste 0 1006.3 -- 63
2020-06-27 05:00:00 20.7 21 Oeste 41 Oeste 0 1006.2 -- 62
2020-06-27 04:00:00 20.5 23 Oeste 40 Oeste 0 1006 -- 64
2020-06-27 03:00:00 20.1 17 Oeste 28 Sudoeste 0 1006.1 -- 66
2020-06-27 02:00:00 19.3 12 Sudoeste 20 Sudoeste 0 1006.7 -- 75
2020-06-27 01:00:00 18.9 8 Oeste 17 Oeste 0 1006.8 -- 78
2020-06-27 00:00:00 18.5 5 Sur 11 Oeste 0 1006.5 -- 76
2020-06-26 23:00:00 18.6 3 Noroeste 10 Oeste 0 1006.5 -- 77
2020-06-26 22:00:00 19.2 7 Oeste 11 Oeste 0 1006.4 -- 76
2020-06-26 21:00:00 19.3 2 Sudeste 13 Oeste 0 1006.3 -- 78
2020-06-26 20:00:00 19 8 Este 18 Nordeste 0 1006.4 -- 81
2020-06-26 19:00:00 19.3 11 Este 23 Este 0 1005.8 -- 78
2020-06-26 18:00:00 20.1 14 Este 25 Este 0 1005.8 -- 74
2020-06-26 17:00:00 20 14 Este 26 Este 0 1006.1 -- 73
2020-06-26 16:00:00 19.5 15 Este 25 Este 0 1006.7 -- 71
2020-06-26 15:00:00 19.1 16 Este 23 Este 0 1007.3 -- 70
2020-06-26 14:00:00 19.3 9 Nordeste 15 Nordeste 0 1008 -- 68
2020-06-26 13:00:00 19 9 Noroeste 15 Noroeste 0 1008 -- 72
2020-06-26 12:00:00 18.6 8 Noroeste 15 Oeste 0 1007.8 -- 75
2020-06-26 11:00:00 19.3 3 Noroeste 13 Oeste 0 1007.8 -- 79
2020-06-26 10:00:00 18.2 9 Oeste 18 Oeste 0 1008.1 -- 86
2020-06-26 09:00:00 16.6 12 Oeste 16 Oeste 0 1007.9 -- 87
2020-06-26 08:00:00 16 6 Sudoeste 16 Oeste 0 1008.1 -- 88
2020-06-26 07:00:00 15.9 12 Oeste 17 Oeste 0 1008.3 -- 87
2020-06-26 06:00:00 15.9 5 Sudoeste 10 Sur 0 1008.3 -- 87
2020-06-26 05:00:00 15.8 6 Sur 18 Oeste 0 1008.2 -- 88
2020-06-26 04:00:00 16 8 Sudoeste 15 Oeste 0 1008.6 -- 87
2020-06-26 03:00:00 16.4 12 Oeste 21 Oeste 0 1009.2 -- 86
2020-06-26 02:00:00 16.5 12 Oeste 19 Oeste 0 1009.4 -- 85
2020-06-26 01:00:00 16.7 10 Oeste 18 Oeste 0 1009.8 -- 85
2020-06-26 00:00:00 16.8 13 Oeste 23 Noroeste 0 1010.1 -- 85
2020-06-25 23:00:00 17 10 Noroeste 26 Oeste 0 1009.9 -- 83
2020-06-25 22:00:00 17.1 12 Noroeste 30 Oeste 0 1009.5 -- 82
2020-06-25 21:00:00 17.4 15 Noroeste 28 Oeste 0 1009.1 -- 82
2020-06-25 20:00:00 17.9 11 Oeste 21 Oeste 0 1009.2 -- 81
2020-06-25 19:00:00 18.6 7 Oeste 20 Oeste 0 1009.5 -- 81
2020-06-25 18:00:00 17.9 14 Oeste 18 Oeste 0 1009.6 -- 81
2020-06-25 17:00:00 18.1 14 Oeste 26 Oeste 0 1009.7 -- 80
2020-06-25 16:00:00 19.2 15 Oeste 26 Oeste 0 1009.3 -- 80
2020-06-25 15:00:00 18.9 17 Oeste 27 Oeste 1 1009.4 -- 82
2020-06-25 14:00:00 18 18 Oeste 29 Noroeste 0 1009.5 -- 81
2020-06-25 13:00:00 18.3 16 Oeste 26 Noroeste 0 1009.5 -- 82
2020-06-25 12:00:00 18.7 13 Oeste 27 Oeste 0 1009.4 -- 81
2020-06-25 11:00:00 17.7 15 Noroeste 32 Oeste 0 1009.6 -- 83
2020-06-25 10:00:00 18.3 15 Oeste 33 Oeste 0 1009 -- 83
2020-06-25 09:00:00 17.4 20 Oeste 32 Oeste 0 1008.5 -- 85
2020-06-25 08:00:00 17.1 22 Oeste 31 Oeste 0 1008.6 -- 86
2020-06-25 07:00:00 17 21 Oeste 32 Oeste 0 1008.4 -- 86
2020-06-25 06:00:00 17.2 17 Oeste 29 Oeste 0 1008.4 -- 87
2020-06-25 05:00:00 17.2 14 Oeste 27 Oeste 0 1008.5 -- 87
2020-06-25 04:00:00 17.3 13 Oeste 30 Oeste 0 1009 -- 87
2020-06-25 03:00:00 17.5 23 Oeste 32 Oeste 0 1009.2 -- 88
2020-06-25 02:00:00 17.6 17 Oeste 35 Oeste 0 1009.2 -- 88
2020-06-25 01:00:00 17.5 27 Oeste 36 Oeste 0 1009 -- 88
2020-06-25 00:00:00 17.7 27 Oeste 32 Oeste 0 1008.9 -- 88
2020-06-24 23:00:00 17.9 18 Oeste 24 Oeste 0 1009.2 -- 87
2020-06-24 22:00:00 18.2 6 Oeste 29 Oeste 0 1009.4 -- 86
2020-06-24 21:00:00 17.8 18 Oeste 31 Oeste 0 1008.7 -- 87
2020-06-24 20:00:00 18 20 Oeste 27 Oeste 0 1008.6 -- 86
2020-06-24 19:00:00 18.1 14 Oeste 19 Noroeste 0 1008.9 -- 85
2020-06-24 18:00:00 18.4 10 Oeste 22 Oeste 0 1009 -- 83
2020-06-24 17:00:00 19.8 10 Oeste 29 Oeste 0 1009.1 -- 76
2020-06-24 16:00:00 22.2 14 Oeste 28 Noroeste 0 1008.7 -- 74
2020-06-24 15:00:00 22.2 16 Oeste 26 Oeste 0 1008.4 -- 74
2020-06-24 14:00:00 22.1 14 Oeste 26 Oeste 0 1008.1 -- 76
2020-06-24 13:00:00 22.2 19 Oeste 25 Oeste 0 1007.8 -- 77
2020-06-24 12:00:00 21.4 14 Oeste 21 Oeste 0 1007.5 -- 81
2020-06-24 11:00:00 19.3 11 Oeste 21 Oeste 0 1007.6 -- 86
2020-06-24 10:00:00 18.2 15 Oeste 24 Oeste 0 1008 -- 88
2020-06-24 09:00:00 17.7 15 Oeste 31 Oeste 0 1007.9 -- 89
2020-06-24 08:00:00 17.5 21 Oeste 34 Oeste 0 1007.5 -- 90
2020-06-24 07:00:00 17.5 21 Oeste 32 Oeste 0 1007.2 -- 90
2020-06-24 06:00:00 17.6 25 Oeste 35 Oeste 0 1006.9 -- 89
2020-06-24 05:00:00 17.6 25 Oeste 39 Oeste 0 1006.9 -- 89
2020-06-24 04:00:00 17.8 21 Oeste 28 Oeste 0 1006.8 -- 90
2020-06-24 03:00:00 17.8 17 Oeste 32 Oeste 0 1007.4 -- 90
2020-06-24 02:00:00 17.8 21 Oeste 32 Oeste 0 1007.3 -- 90
2020-06-24 01:00:00 18 19 Oeste 32 Noroeste 0 1007.3 -- 89
2020-06-24 00:00:00 18.2 25 Oeste 34 Oeste 0 1007.3 -- 88
2020-06-23 23:00:00 18.3 27 Oeste 32 Oeste 0 1007.1 -- 87
2020-06-23 22:00:00 19.2 19 Oeste 22 Oeste 0 1006.3 -- 81
2020-06-23 21:00:00 20.1 7 Este 16 Este 0 1006.1 -- 80
2020-06-23 20:00:00 20.1 12 Este 25 Este 0 1006.1 -- 80
2020-06-23 19:00:00 20.6 11 Este 21 Este 0 1006.1 -- 79
2020-06-23 18:00:00 21 10 Este 19 Este 0 1006.5 -- 79
2020-06-23 17:00:00 20.9 9 Este 17 Este 0 1006.9 -- 80
2020-06-23 16:00:00 20.4 4 Nordeste 11 Este 0 1007.3 -- 81
2020-06-23 15:00:00 19.5 5 Nordeste 10 Nordeste 0 1007.7 -- 83
2020-06-23 14:00:00 19.4 4 Norte 12 Oeste 0 1008.1 -- 82
2020-06-23 13:00:00 20.3 8 Oeste 16 Oeste 0 1008.4 -- 84
2020-06-23 12:00:00 19.4 7 Oeste 14 Oeste 0 1008.5 -- 88
2020-06-23 11:00:00 18.2 8 Oeste 15 Oeste 0 1008.7 -- 89
2020-06-23 10:00:00 17.5 8 Oeste 13 Oeste 0 1009.1 -- 90
2020-06-23 09:00:00 16.9 3 Noroeste 8 Nordeste 0 1009.2 -- 90
2020-06-23 08:00:00 16.9 3 Sudeste 6 Nordeste 0 1009.1 -- 90
2020-06-23 07:00:00 17.1 3 Noroeste 12 Oeste 0 1009.1 -- 90
2020-06-23 06:00:00 17.2 7 Oeste 13 Oeste 0 1009.3 -- 89
2020-06-23 05:00:00 17.1 4 Oeste 8 Oeste 0 1009.7 -- 89
2020-06-23 04:00:00 17.2 3 Sudeste 6 Este 0 1010.3 -- 89
2020-06-23 03:00:00 17.5 2 Sudeste 10 Oeste 0 1011 -- 89
2020-06-23 02:00:00 17.7 5 Oeste 9 Oeste 0 1011.6 -- 88
2020-06-23 01:00:00 17.7 8 Oeste 12 Sudoeste 0 1012.1 -- 88
2020-06-23 00:00:00 17.6 8 Este 24 Este 0 1012.6 -- 88
2020-06-22 23:00:00 17.7 17 Este 32 Nordeste 0 1012.4 -- 88
2020-06-22 22:00:00 18 20 Nordeste 38 Nordeste 0 1012.1 -- 87
2020-06-22 21:00:00 18.5 21 Nordeste 43 Nordeste 0 1012.2 -- 85
2020-06-22 20:00:00 18.8 26 Nordeste 43 Nordeste 0 1012.3 -- 84
2020-06-22 19:00:00 19 28 Nordeste 44 Nordeste 0 1012.6 -- 83
2020-06-22 18:00:00 19.2 28 Nordeste 42 Nordeste 0 1013.1 -- 83
2020-06-22 17:00:00 19.3 27 Nordeste 45 Nordeste 0 1013.7 -- 82
2020-06-22 16:00:00 19.5 27 Nordeste 46 Nordeste 0 1014.3 -- 81
2020-06-22 15:00:00 19.7 26 Nordeste 43 Nordeste 0 1014.8 -- 80
2020-06-22 14:00:00 19.7 24 Nordeste 37 Nordeste 0 1015.4 -- 80
2020-06-22 13:00:00 19.9 20 Nordeste 35 Nordeste 0 1015.6 -- 79
2020-06-22 12:00:00 19.9 17 Nordeste 33 Nordeste 0 1015.8 -- 77
2020-06-22 11:00:00 19.8 4 Nordeste 10 Nordeste 0 1016.6 -- 78
2020-06-22 10:00:00 18.3 5 Noroeste 10 Oeste 0 1017.2 -- 82
2020-06-22 09:00:00 17.7 6 Oeste 9 Oeste 0 1017.3 -- 86
2020-06-22 08:00:00 15.5 3 Sur 10 Sur 0 1017.4 -- 87
2020-06-22 07:00:00 14.4 6 Sudoeste 13 Sur 0 1017.3 -- 88
2020-06-22 06:00:00 14.6 9 Sur 13 Sur 0 1017.6 -- 87
2020-06-22 05:00:00 15.2 7 Sudeste 13 Este 0 1018.2 -- 86
2020-06-22 04:00:00 16.5 10 Este 18 Este 0 1018.3 -- 87
2020-06-22 03:00:00 16.9 11 Este 20 Nordeste 0 1018.9 -- 87
2020-06-22 02:00:00 17 12 Este 18 Este 0 1019.5 -- 86
2020-06-22 01:00:00 17 9 Este 15 Este 0 1020.1 -- 86
2020-06-22 00:00:00 17.3 8 Este 12 Este 0 1020.5 -- 84
2020-06-21 23:00:00 17.6 3 Este 5 Este 0 1020.5 -- 82
2020-06-21 22:00:00 17.6 2 Nordeste 6 Noroeste 0 1020.2 -- 82
2020-06-21 21:00:00 17.7 5 Noroeste 16 Oeste 0 1020.1 -- 82
2020-06-21 20:00:00 18.4 6 Noroeste 17 Noroeste 0 1019.9 -- 81
2020-06-21 19:00:00 19.4 10 Oeste 18 Oeste 0 1019.5 -- 78
2020-06-21 18:00:00 20.5 12 Oeste 22 Oeste 0 1019.3 -- 77
2020-06-21 17:00:00 20.7 12 Oeste 27 Noroeste 0 1019.2 -- 74
2020-06-21 16:00:00 21.8 8 Noroeste 14 Noroeste 0 1018.7 -- 70
2020-06-21 15:00:00 20.7 8 Noroeste 14 Noroeste 0 1018.6 -- 66
2020-06-21 14:00:00 21.7 4 Este 12 Sudeste 0 1018.1 -- 64
2020-06-21 13:00:00 21 5 Este 9 Norte 0 1017.8 -- 63
2020-06-21 12:00:00 22.8 3 Noroeste 8 Oeste 0 1017.4 -- 57
2020-06-21 11:00:00 20.5 3 Noroeste 9 Sur 0 1017.3 -- 63
2020-06-21 10:00:00 20.2 3 Sudoeste 9 Sur 0 1017.2 -- 66
2020-06-21 09:00:00 17.8 6 Sur 15 Sur 0 1017 -- 72
2020-06-21 08:00:00 15.1 12 Sur 21 Sudeste 0 1016.4 -- 79
2020-06-21 07:00:00 14.4 13 Sur 20 Sur 0 1016 -- 77
2020-06-21 06:00:00 16.3 14 Oeste 20 Sudoeste 0 1015.7 -- 73
2020-06-21 05:00:00 14.5 10 Sur 20 Sudoeste 0 1015.8 -- 80
2020-06-21 04:00:00 14.6 6 Sudoeste 17 Sur 0 1015.8 -- 82
2020-06-21 03:00:00 15.2 13 Sudeste 19 Sur 0 1015.9 -- 81
2020-06-21 02:00:00 16 9 Sudoeste 15 Sur 0 1016.3 -- 80
2020-06-21 01:00:00 15.3 14 Sur 17 Sur 0 1016.3 -- 80
2020-06-21 00:00:00 16.3 10 Sudeste 15 Este 0 1016.3 -- 74
2020-06-20 23:00:00 17.5 10 Este 21 Este 0 1016 -- 72
2020-06-20 22:00:00 18 8 Este 18 Este 0 1015.6 -- 71
2020-06-20 21:00:00 18.4 9 Este 16 Este 0 1015.6 -- 67
2020-06-20 20:00:00 19 9 Este 15 Este 0 1015.9 -- 67
2020-06-20 19:00:00 19.8 7 Nordeste 16 Este 0 1015.9 -- 65
2020-06-20 18:00:00 19.8 7 Nordeste 18 Nordeste 0 1015.9 -- 66
2020-06-20 17:00:00 19.8 10 Nordeste 19 Nordeste 0 1015.6 -- 70
2020-06-20 16:00:00 20.8 7 Norte 26 Nordeste 0 1015.4 -- 71
2020-06-20 15:00:00 19.6 12 Nordeste 22 Nordeste 0 1015.3 -- 72
2020-06-20 14:00:00 19.4 11 Nordeste 20 Nordeste 0 1015.4 -- 72
2020-06-20 13:00:00 19.7 7 Este 17 Nordeste 0 1015.5 -- 72
2020-06-20 12:00:00 19.2 10 Nordeste 17 Nordeste 0 1015.4 -- 72
2020-06-20 11:00:00 19.2 4 Noroeste 12 Norte 0 1015.2 -- 71
2020-06-20 10:00:00 18.8 4 Noroeste 9 Oeste 0 1015 -- 75
2020-06-20 09:00:00 17 8 Oeste 14 Sudoeste 0 1014.9 -- 80
2020-06-20 08:00:00 16 8 Sudoeste 14 Sudoeste 0 1014.8 -- 81
2020-06-20 07:00:00 14.5 8 Sur 19 Sudeste 0 1014.6 -- 83
2020-06-20 06:00:00 14.2 17 Sudeste 20 Sudeste 0 1014.2 -- 83
2020-06-20 05:00:00 14.1 15 Sur 19 Sur 0 1014.4 -- 82
2020-06-20 04:00:00 14.9 12 Sur 16 Sur 0 1014.6 -- 81
2020-06-20 03:00:00 15.2 12 Sur 17 Sudeste 0 1014.6 -- 81
2020-06-20 02:00:00 15.4 13 Sudeste 19 Sudeste 0 1014.7 -- 81
2020-06-20 01:00:00 15.1 12 Sur 14 Sur 0 1015 -- 81
2020-06-20 00:00:00 15.2 8 Sudeste 13 Sudeste 0 1015.1 -- 77
2020-06-19 23:00:00 16.2 6 Este 12 Nordeste 0 1014.9 -- 73
2020-06-19 22:00:00 16.8 6 Este 10 Este 0 1014.5 -- 69
2020-06-19 21:00:00 17.9 6 Este 15 Este 0 1014.2 -- 68
2020-06-19 20:00:00 18.3 6 Este 14 Nordeste 0 1014.1 -- 66
2020-06-19 19:00:00 18.9 5 Norte 16 Nordeste 0 1013.8 -- 65
2020-06-19 18:00:00 19.1 5 Noroeste 14 Sudoeste 0 1013.6 -- 66
2020-06-19 17:00:00 19.3 5 Nordeste 17 Nordeste 0 1013.4 -- 65
2020-06-19 16:00:00 18.6 9 Nordeste 18 Nordeste 0 1013.3 -- 68
2020-06-19 15:00:00 18.9 6 Norte 15 Nordeste 0 1013.3 -- 66
2020-06-19 14:00:00 18.5 8 Noroeste 15 Noroeste 0 1013.2 -- 67
2020-06-19 13:00:00 18.1 9 Noroeste 20 Noroeste 0 1013.1 -- 65
2020-06-19 12:00:00 17.8 15 Noroeste 18 Noroeste 0 1012.9 -- 66
2020-06-19 11:00:00 18 7 Noroeste 11 Noroeste 0 1012.8 -- 64
2020-06-19 10:00:00 18.2 5 Oeste 9 Sudoeste 0 1012.8 -- 66
2020-06-19 09:00:00 16 6 Sudoeste 12 Sudoeste 0 1012.6 -- 74
2020-06-19 08:00:00 14.2 8 Sudoeste 12 Sudoeste 0 1012.2 -- 81
2020-06-19 07:00:00 13.3 7 Sudoeste 13 Sur 0 1011.7 -- 84
2020-06-19 06:00:00 13.4 10 Sur 15 Sur 0 1011.4 -- 83
2020-06-19 05:00:00 13.9 10 Sur 13 Sur 0 1011.5 -- 82
2020-06-19 04:00:00 14.5 10 Sur 13 Sur 0 1011.6 -- 81
2020-06-19 03:00:00 15 8 Sudoeste 11 Sur 0 1011.6 -- 81
2020-06-19 02:00:00 15.2 7 Sudoeste 11 Oeste 0 1011.9 -- 80
2020-06-19 01:00:00 15.9 6 Sudoeste 17 Oeste 0 1012 -- 79
2020-06-19 00:00:00 16.3 10 Oeste 15 Oeste 0 1012 -- 79
2020-06-18 23:00:00 16.4 7 Oeste 15 Noroeste 0 1011.5 -- 77
2020-06-18 22:00:00 16.6 5 Oeste 15 Oeste 0 1011 -- 73
2020-06-18 21:00:00 17 9 Oeste 16 Oeste 0 1010.6 -- 69
2020-06-18 20:00:00 18.2 5 Oeste 12 Oeste 0 1010.2 -- 64
2020-06-18 19:00:00 18.4 6 Oeste 12 Oeste 0 1010.1 -- 65
2020-06-18 18:00:00 18.4 6 Oeste 14 Noroeste 0 1010.1 -- 69
2020-06-18 17:00:00 19 11 Noroeste 18 Noroeste 0 1010.4 -- 68
2020-06-18 16:00:00 18.5 15 Noroeste 19 Noroeste 0 1010.2 -- 70
2020-06-18 15:00:00 18.5 9 Noroeste 17 Noroeste 0 1010.2 -- 68
2020-06-18 14:00:00 18.1 13 Noroeste 17 Oeste 0 1009.9 -- 66
2020-06-18 13:00:00 17.8 10 Noroeste 14 Noroeste 0 1009.9 -- 67
2020-06-18 12:00:00 17.3 11 Noroeste 16 Noroeste 0 1009.9 -- 67
2020-06-18 11:00:00 17.7 9 Oeste 15 Noroeste 0 1009.7 -- 68
2020-06-18 10:00:00 17.7 6 Oeste 8 Oeste 0 1009.4 -- 67
2020-06-18 09:00:00 15.5 5 Sudoeste 14 Sur 0 1009.2 -- 75
2020-06-18 08:00:00 13 11 Sur 15 Sur 0 1008.9 -- 84
2020-06-18 07:00:00 12.7 11 Sur 14 Sur 0 1008.8 -- 83
2020-06-18 06:00:00 13.6 9 Sur 14 Sur 0 1009.1 -- 80
2020-06-18 05:00:00 14.3 10 Sudoeste 18 Oeste 0 1009.3 -- 76
2020-06-18 04:00:00 14.5 14 Oeste 24 Oeste 0 1009.8 -- 76
2020-06-18 03:00:00 14.5 15 Oeste 23 Oeste 0 1010.1 -- 78
2020-06-18 02:00:00 14.9 10 Sudoeste 14 Sudoeste 0 1010.2 -- 74
2020-06-18 01:00:00 14.7 10 Sudoeste 15 Oeste 0 1010.6 -- 75
2020-06-18 00:00:00 14.5 7 Sudoeste 13 Sudoeste 0 1010.7 -- 77
2020-06-17 23:00:00 14.8 9 Sudoeste 15 Sudoeste 0 1010.9 -- 75
2020-06-17 22:00:00 14.6 9 Sur 19 Sur 0 1010.5 -- 75
2020-06-17 21:00:00 14.4 13 Sudoeste 29 Oeste 0 1010.4 -- 76
2020-06-17 20:00:00 15.1 25 Oeste 30 Oeste 0 1010.4 -- 78
2020-06-17 19:00:00 15.5 18 Oeste 25 Oeste 0 1010.8 -- 79
2020-06-17 18:00:00 15.8 14 Oeste 22 Oeste 0 1011.1 -- 79
2020-06-17 17:00:00 15.5 14 Oeste 20 Oeste 0 1011.5 -- 80
2020-06-17 16:00:00 15.1 21 Oeste 37 Oeste 0.2 1011.6 -- 82
2020-06-17 15:00:00 17 20 Oeste 33 Oeste 0 1011.4 -- 75
2020-06-17 14:00:00 18.2 11 Oeste 19 Oeste 0 1011.6 -- 70
2020-06-17 13:00:00 17.3 18 Oeste 28 Oeste 0 1011.6 -- 70
2020-06-17 12:00:00 18.6 17 Oeste 28 Oeste 0 1011.4 -- 68
2020-06-17 11:00:00 16.5 10 Oeste 19 Oeste 0 1011.5 -- 73
2020-06-17 10:00:00 15.1 10 Oeste 27 Oeste 0 1011.7 -- 77
2020-06-17 09:00:00 15.1 22 Oeste 37 Oeste 0 1011.5 -- 74
2020-06-17 08:00:00 15.3 15 Oeste 25 Oeste 0 1011.2 -- 71
2020-06-17 07:00:00 15.1 13 Sudoeste 21 Oeste 0 1011.1 -- 72
2020-06-17 06:00:00 15.1 16 Oeste 31 Oeste 0 1011 -- 75
2020-06-17 05:00:00 15.2 22 Oeste 33 Oeste 0 1011.2 -- 73
2020-06-17 04:00:00 15.2 24 Oeste 31 Oeste 0 1011.7 -- 73
2020-06-17 03:00:00 15.1 22 Oeste 34 Oeste 0 1012.3 -- 74
2020-06-17 02:00:00 15 25 Oeste 36 Oeste 0 1012.7 -- 76
2020-06-17 01:00:00 15.1 22 Oeste 29 Oeste 0 1013.3 -- 79
2020-06-17 00:00:00 15 22 Oeste 34 Oeste 0 1013.5 -- 80
2020-06-16 23:00:00 15.1 31 Oeste 47 Oeste 0 1013.2 -- 82
2020-06-16 22:00:00 15.3 23 Oeste 41 Oeste 0.2 1012.8 -- 83
2020-06-16 21:00:00 15.9 22 Oeste 37 Oeste 0 1012.7 -- 83
2020-06-16 20:00:00 16.2 22 Oeste 50 Oeste 0 1012.4 -- 80
2020-06-16 19:00:00 17.3 33 Oeste 47 Oeste 0 1012.1 -- 75
2020-06-16 18:00:00 18 22 Oeste 39 Oeste 0 1012.5 -- 72
2020-06-16 17:00:00 17.6 19 Oeste 41 Oeste 0 1012.6 -- 74
2020-06-16 16:00:00 17.8 22 Oeste 38 Oeste 0 1012.5 -- 75
2020-06-16 15:00:00 17.5 21 Oeste 37 Oeste 0 1012.6 -- 75
2020-06-16 14:00:00 17.2 18 Oeste 42 Noroeste 0 1012.6 -- 75
2020-06-16 13:00:00 18.1 33 Oeste 51 Oeste 0 1012.5 -- 78
2020-06-16 12:00:00 17.9 19 Oeste 39 Oeste 0 1012.3 -- 72
2020-06-16 11:00:00 15 29 Oeste 41 Oeste 0 1012.2 -- 78
2020-06-16 10:00:00 14.3 30 Oeste -- -- -- 1012.4 -- 85
2020-06-16 09:00:00 14.6 13 Oeste 25 Oeste 0.2 1012.5 -- 88
2020-06-16 08:00:00 14.3 15 Oeste 30 Oeste 1 1012.3 -- 87
2020-06-16 07:00:00 14.5 12 Sudoeste 23 Oeste 0.6 1012.1 -- 87
2020-06-16 06:00:00 14.6 12 Oeste 17 Oeste 1.4 1012.4 -- 88
2020-06-16 05:00:00 14.6 7 Sudoeste 14 Sur 1 1012.6 -- 87
2020-06-16 04:00:00 14.6 9 Sur 13 Sur 0 1013 -- 87
2020-06-16 03:00:00 14.7 9 Sudeste 14 Sudeste 0 1013.5 -- 86
2020-06-16 02:00:00 14.6 8 Sudeste 12 Sudeste 0 1014 -- 86
2020-06-16 01:00:00 14.6 8 Sudeste 13 Sudeste 0 1014.3 -- 84
2020-06-16 00:00:00 14.9 8 Sur -- -- -- 1014.6 -- 81
2020-06-15 23:00:00 -- -- -- -- -- -- -- -- --
2020-06-15 22:00:00 16.4 2 Sudoeste 12 Oeste 0 1014.3 -- 74
2020-06-15 21:00:00 17 7 Oeste 14 Oeste 0 1014.4 -- 74
2020-06-15 20:00:00 17.7 8 Oeste 15 Oeste 0 1014.5 -- 74
2020-06-15 19:00:00 17.9 7 Oeste 14 Oeste 0 1014.3 -- 74
2020-06-15 18:00:00 17.2 9 Oeste 36 Oeste 0.8 1014.7 -- 80
2020-06-15 17:00:00 18.1 17 Oeste 35 Oeste 0 1014.9 -- 70
2020-06-15 16:00:00 -- -- -- 36 Norte -- -- -- --
2020-06-15 15:00:00 -- -- -- 41 Norte -- -- -- --
2020-06-15 14:00:00 20.8 -- -- -- -- -- 1014.5 -- 64
2020-06-15 13:00:00 19.7 -- -- -- -- -- 1014.1 -- 65
2020-06-15 12:00:00 18.5 22 Oeste -- -- -- 1014.2 -- 67
2020-06-15 11:00:00 17.7 20 Oeste 39 Oeste 0 1014.1 -- 67
2020-06-15 10:00:00 18.3 17 Oeste 33 Oeste 0 1014 -- 67
2020-06-15 09:00:00 17.6 30 Oeste 50 Oeste 0 1013.6 -- 62
2020-06-15 08:00:00 17 21 Sudoeste -- -- 0 1013.1 -- 62
2020-06-15 07:00:00 15.7 15 Oeste 26 Oeste 0 1013.2 -- 68
2020-06-15 06:00:00 15.9 17 Oeste -- -- 0 1012.9 -- 64
2020-06-15 05:00:00 16.1 20 Oeste -- -- 0 1013.2 -- 65
2020-06-15 04:00:00 16.4 -- -- -- -- 0 1013.4 -- 62
2020-06-15 03:00:00 16.4 20 Oeste 33 Oeste 0 1013.4 -- 65
2020-06-15 02:00:00 16.1 16 Oeste -- -- -- 1013.8 -- 73
2020-06-15 01:00:00 -- -- -- -- -- -- -- -- --
2020-06-15 00:00:00 -- -- -- -- -- -- -- -- --
2020-06-14 23:00:00 -- -- -- -- -- -- -- -- --
2020-06-14 22:00:00 -- -- -- -- -- -- -- -- --
2020-06-14 21:00:00 -- -- -- -- -- -- -- -- --
2020-06-14 20:00:00 -- -- -- -- -- -- -- -- --
2020-06-14 19:00:00 -- -- -- -- -- -- -- -- --
2020-06-14 18:00:00 -- -- -- -- -- -- -- -- --
2020-06-14 17:00:00 -- -- -- -- -- -- -- -- --
2020-06-14 16:00:00 -- -- -- -- -- -- -- -- --
2020-06-14 15:00:00 -- -- -- -- -- -- -- -- --
2020-06-14 14:00:00 -- -- -- -- -- -- -- -- --
2020-06-14 13:00:00 -- -- -- -- -- -- -- -- --
2020-06-14 12:00:00 -- -- -- -- -- -- -- -- --
2020-06-14 11:00:00 -- -- -- -- -- -- -- -- --
2020-06-14 10:00:00 -- -- -- -- -- -- -- -- --
2020-06-14 09:00:00 -- -- -- -- -- -- -- -- --
2020-06-14 08:00:00 -- -- -- -- -- -- -- -- --
2020-06-14 07:00:00 -- -- -- -- -- -- -- -- --
2020-06-14 06:00:00 -- -- -- -- -- -- -- -- --
2020-06-14 05:00:00 -- -- -- -- -- -- -- -- --
2020-06-14 04:00:00 -- -- -- -- -- -- -- -- --
2020-06-14 03:00:00 -- -- -- -- -- -- -- -- --
2020-06-14 02:00:00 -- -- -- -- -- -- -- -- --
2020-06-14 01:00:00 -- -- -- -- -- -- -- -- --
2020-06-14 00:00:00 -- -- -- -- -- -- -- -- --
2020-06-13 23:00:00 -- -- -- -- -- -- -- -- --
2020-06-13 22:00:00 -- -- -- -- -- -- -- -- --
2020-06-13 21:00:00 -- -- -- -- -- -- -- -- --
2020-06-13 20:00:00 -- -- -- -- -- -- -- -- --
2020-06-13 19:00:00 -- -- -- -- -- -- -- -- --
2020-06-13 18:00:00 -- -- -- -- -- -- -- -- --
2020-06-13 17:00:00 -- -- -- -- -- -- -- -- --
2020-06-13 16:00:00 -- -- -- -- -- -- -- -- --
2020-06-13 15:00:00 -- -- -- -- -- -- -- -- --
2020-06-13 14:00:00 -- -- -- -- -- -- -- -- --
2020-06-13 13:00:00 -- -- -- -- -- -- -- -- --
2020-06-13 12:00:00 -- -- -- -- -- -- -- -- --
2020-06-13 11:00:00 -- -- -- -- -- -- -- -- --
2020-06-13 10:00:00 -- -- -- -- -- -- -- -- --
2020-06-13 09:00:00 -- -- -- -- -- -- -- -- --
2020-06-13 08:00:00 -- -- -- -- -- -- -- -- --
2020-06-13 07:00:00 -- -- -- -- -- -- -- -- --
2020-06-13 06:00:00 -- -- -- -- -- -- -- -- --
2020-06-13 05:00:00 -- -- -- -- -- -- -- -- --
2020-06-13 04:00:00 -- -- -- -- -- -- -- -- --
2020-06-13 03:00:00 -- -- -- -- -- -- -- -- --
2020-06-13 02:00:00 -- -- -- -- -- -- -- -- --
2020-06-13 01:00:00 -- -- -- -- -- -- -- -- --
2020-06-13 00:00:00 -- -- -- -- -- -- -- -- --
2020-06-12 23:00:00 -- -- -- -- -- -- -- -- --
2020-06-12 22:00:00 -- -- -- -- -- -- -- -- --
2020-06-12 21:00:00 -- -- -- -- -- -- -- -- --
2020-06-12 20:00:00 -- -- -- -- -- -- -- -- --
2020-06-12 19:00:00 -- -- -- -- -- -- -- -- --
2020-06-12 18:00:00 -- -- -- -- -- -- -- -- --
2020-06-12 17:00:00 -- -- -- -- -- -- -- -- --
2020-06-12 16:00:00 -- -- -- -- -- -- -- -- --
2020-06-12 15:00:00 -- -- -- -- -- -- -- -- --
2020-06-12 14:00:00 -- -- -- -- -- -- -- -- --
2020-06-12 13:00:00 -- -- -- -- -- -- -- -- --
2020-06-12 12:00:00 -- -- -- -- -- -- -- -- --
2020-06-12 11:00:00 -- -- -- -- -- -- -- -- --
2020-06-12 10:00:00 -- -- -- -- -- -- -- -- --
2020-06-12 09:00:00 -- -- -- -- -- -- -- -- --
2020-06-12 08:00:00 -- -- -- -- -- -- -- -- --
2020-06-12 07:00:00 -- -- -- -- -- -- -- -- --
2020-06-12 06:00:00 -- -- -- -- -- -- -- -- --
2020-06-12 05:00:00 -- -- -- -- -- -- -- -- --
2020-06-12 04:00:00 -- -- -- -- -- -- -- -- --
2020-06-12 03:00:00 -- -- -- -- -- -- -- -- --
2020-06-12 02:00:00 -- -- -- -- -- -- -- -- --
2020-06-12 01:00:00 -- -- -- -- -- -- -- -- --
2020-06-12 00:00:00 -- -- -- -- -- -- -- -- --